Terminal Aerodrome Forecast
Issued by NWS

Home | Current Version | Previous Version | Text Only | Print | Product List | Glossary On
Versions: 1 2 3 4 5 6 7 8 9 10 11 12 13 14 15 16 17 18 19
606
FTUS44 KLZK 042320
TAFLLQ
TAF
KLLQ 042320Z 0500/0524 VRB03KT P6SM VCFG OVC015
     FM050500 05005KT 4SM BR BKN010 OVC020
     FM051000 04004KT 3SM BR VCSH OVC004
     FM051500 06005KT 5SM -RA BR OVC009 PROB30 0518/0524 2SM RA BR
      OVC005=

USA.gov is the U.S. government's official web portal to all federal, state and local government web resources and services.